Latest Weather Observations for Point Stuart

IDD60801

Issued at 10:31 pm CST Saturday 27 August 2016 (issued every 30 minutes, with the page automatically refreshed every 10 minutes)

About weather observations | Map of weather stations | Latest weather observations for NT | Other Formats
Station Details ID: 014254 Name: POINT STUART Lat: -12.24 Lon: 131.88 Height: 1.0 m
Data from the previous 72 hours. | See also: Recent months at Point Stuart
Date/Time
CST
Temp
°C
App
Temp
°C
Dew
Point
°C
Rel
Hum
%
Delta-T
°C
Wind Press
QNH
hPa
Press
MSL
hPa
Rain since
9am
mm
Dir  Spd
km/h
Gust
km/h
Spd
kts
Gust
kts
27/10:30pm 23.9 25.5 17.9 69 3.7 N 6 9 3 5 1014.7 - 0.0
27/10:00pm 23.1 24.0 16.6 67 4.0 N 7 11 4 6 1014.4 - 0.0
27/09:30pm 22.9 24.8 15.7 64 4.3 CALM 0 0 0 0 1014.3 - 0.0
27/09:00pm 23.1 24.8 15.2 61 4.7 CALM 0 7 0 4 1014.0 1014.0 0.0
27/08:30pm 23.5 24.2 14.5 57 5.3 N 4 7 2 4 1013.5 - 0.0
27/08:00pm 24.5 24.8 14.6 54 5.9 NNW 6 7 3 4 1012.9 - 0.0
27/07:30pm 25.5 26.0 14.9 52 6.4 NNW 6 7 3 4 1012.3 - 0.0
27/07:00pm 26.9 27.3 15.3 49 7.0 NNW 7 9 4 5 1012.0 - 0.0
27/06:30pm 28.6 29.2 15.8 45 7.9 NNW 7 11 4 6 1011.7 - 0.0
27/06:00pm 29.3 29.6 16.1 44 8.2 NNW 9 15 5 8 1011.4 1011.4 0.0
27/05:30pm 29.7 29.5 15.8 43 8.6 N 11 20 6 11 1011.4 - 0.0
27/05:00pm 30.2 29.4 15.1 40 9.3 NNW 13 19 7 10 1011.2 - 0.0
27/04:30pm 30.7 29.5 13.9 36 10.1 N 13 19 7 10 1011.2 - 0.0
27/04:00pm 31.1 30.0 14.3 36 10.2 N 13 20 7 11 1011.3 - 0.0
27/03:30pm 31.4 29.9 14.1 35 10.5 NNE 15 20 8 11 1011.5 - 0.0
27/03:00pm 31.3 29.6 13.6 34 10.7 N 15 24 8 13 1011.9 1011.9 0.0
27/02:30pm 31.2 29.3 13.0 33 10.8 NNE 15 20 8 11 1012.3 - 0.0
27/02:00pm 31.5 29.7 13.3 33 10.9 NE 15 20 8 11 1012.7 - 0.0
27/01:30pm 31.3 29.2 13.6 34 10.6 NE 17 24 9 13 1013.3 - 0.0
27/01:00pm 30.9 28.7 13.2 34 10.6 NE 17 24 9 13 1013.9 - 0.0
27/12:30pm 30.2 27.2 12.1 32 10.6 ENE 19 28 10 15 1014.5 - 0.0
27/12:00pm 29.4 26.2 11.9 34 10.2 ENE 20 28 11 15 1015.2 1015.2 0.0
27/11:30am 29.1 25.6 12.1 35 9.9 E 22 30 12 16 1015.9 - 0.0
27/11:00am 28.4 24.9 12.3 37 9.4 E 22 32 12 17 1016.3 - 0.0
27/10:30am 28.3 25.1 13.0 39 9.0 E 22 32 12 17 1016.5 - 0.0
27/10:00am 27.3 23.9 13.6 43 8.1 E 24 32 13 17 1016.6 - 0.0
27/09:30am 26.6 23.1 14.4 47 7.3 E 26 35 14 19 1016.5 - 0.0
27/09:00am 26.5 23.8 15.5 50 6.7 E 24 33 13 18 1016.3 1016.3 0.0
27/08:30am 26.0 24.2 16.0 54 6.1 ENE 20 28 11 15 1016.4 - 0.0
27/08:00am 24.9 24.4 15.8 57 5.5 E 13 20 7 11 1016.1 - 0.0
27/07:30am 24.2 24.0 15.7 59 5.1 ESE 11 15 6 8 1015.7 - 0.0
27/07:00am 24.7 23.4 15.9 58 5.3 E 17 20 9 11 1015.4 - 0.0
27/06:30am 24.8 23.1 16.2 58 5.3 E 20 28 11 15 1015.1 - 0.0
27/06:00am 24.6 23.2 16.6 61 4.9 E 19 26 10 14 1014.7 1014.7 0.0
27/05:30am 24.7 23.8 17.7 65 4.4 E 19 28 10 15 1014.1 - 0.0
27/05:00am 25.2 24.2 18.9 68 4.0 E 22 32 12 17 1014.0 - 0.0
27/04:30am 25.2 26.0 19.8 72 3.5 ENE 15 20 8 11 1013.9 - 0.0
27/04:00am 25.4 26.3 20.0 72 3.5 ENE 15 22 8 12 1013.9 - 0.0
27/03:30am 25.7 25.8 20.3 72 3.5 ENE 20 28 11 15 1013.8 - 0.0
27/03:00am 25.9 25.4 20.7 73 3.4 ENE 24 33 13 18 1013.8 1013.8 0.0
27/02:30am 26.2 26.5 21.6 76 3.1 ENE 22 32 12 17 1013.9 - 0.0
27/02:00am 26.2 26.9 21.6 76 3.1 ENE 20 28 11 15 1014.2 - 0.0
27/01:30am 26.1 26.8 21.5 76 3.1 ENE 20 28 11 15 1014.4 - 0.0
27/01:00am 26.3 27.3 21.7 76 3.1 ENE 19 28 10 15 1014.6 - 0.0
27/12:30am 26.4 27.7 21.6 75 3.2 ENE 17 22 9 12 1014.6 - 0.0
27/12:00am 26.5 27.7 21.5 74 3.3 ENE 17 24 9 13 1014.5 1014.5 0.0
 
Date/Time
CST
Temp
°C
App
Temp
°C
Dew
Point
°C
Rel
Hum
%
Delta-T
°C
Wind Press
QNH
hPa
Press
MSL
hPa
Rain since
9am
mm
Dir  Spd
km/h
Gust
km/h
Spd
kts
Gust
kts
26/11:30pm 26.4 28.4 21.6 75 3.2 NE 13 20 7 11 1014.1 - 0.0
26/11:00pm 26.6 29.0 21.6 74 3.3 NNE 11 20 6 11 1013.9 - 0.0
26/10:30pm 26.7 28.7 21.5 73 3.5 NNE 13 22 7 12 1013.6 - 0.0
26/10:00pm 26.9 28.6 21.0 70 3.9 NNE 13 24 7 13 1013.5 - 0.0
26/09:30pm 27.0 28.5 20.6 68 4.2 NNE 13 20 7 11 1013.3 - 0.0
26/09:00pm 27.3 28.8 20.6 67 4.4 NNE 13 28 7 15 1012.9 1012.9 0.0
26/08:30pm 27.3 28.8 20.6 67 4.4 NNE 13 20 7 11 1012.6 - 0.0
26/08:00pm 27.6 29.8 20.4 65 4.7 NNE 9 15 5 8 1012.3 - 0.0
26/07:30pm 27.7 30.1 20.0 63 5.0 N 7 11 4 6 1012.0 - 0.0
26/07:00pm 28.1 30.3 19.6 60 5.5 N 7 13 4 7 1011.5 - 0.0
26/06:30pm 29.2 31.1 19.8 57 6.1 N 9 17 5 9 1011.1 - 0.0
26/06:00pm 30.5 32.3 19.5 51 7.2 N 9 15 5 8 1010.8 1010.8 0.0
26/05:30pm 31.1 32.1 19.4 49 7.7 NNE 13 20 7 11 1010.6 - 0.0
26/05:00pm 31.4 32.4 19.4 49 7.9 NNE 13 22 7 12 1010.4 - 0.0
26/04:30pm 31.4 31.2 19.4 49 7.9 NNE 19 26 10 14 1010.3 - 0.0
26/04:00pm 31.7 31.8 20.0 50 7.7 NNE 19 28 10 15 1010.3 - 0.0
26/03:30pm 31.6 31.8 20.2 50 7.6 NNE 19 30 10 16 1010.5 - 0.0
26/03:00pm 31.3 31.6 20.3 52 7.3 NNE 19 30 10 16 1010.8 1010.8 0.0
26/02:30pm 31.6 31.9 20.8 52 7.2 NNE 20 28 11 15 1011.2 - 0.0
26/02:00pm 31.9 32.1 21.4 53 7.1 NNE 22 32 12 17 1011.6 - 0.0
26/01:30pm 31.7 31.5 21.2 53 7.1 NE 24 35 13 19 1012.1 - 0.0
26/01:00pm 31.5 31.5 21.7 56 6.6 NE 24 33 13 18 1012.7 - 0.0
26/12:30pm 31.3 31.5 22.0 57 6.3 ENE 24 32 13 17 1013.0 - 0.0
26/12:00pm 30.6 30.6 21.7 59 6.0 E 24 33 13 18 1013.5 1013.5 0.0
26/11:30am 30.7 30.6 22.3 61 5.7 ENE 26 35 14 19 1013.7 - 0.0
26/11:00am 30.0 30.7 22.9 65 4.9 E 24 33 13 18 1014.1 - 0.0
26/10:30am 29.6 31.2 23.8 71 4.0 E 22 33 12 18 1014.5 - 0.0
26/10:00am 29.0 30.7 24.1 75 3.4 E 22 32 12 17 1014.6 - 0.0
26/09:30am 28.0 30.9 24.4 81 2.5 E 17 24 9 13 1014.5 - 0.0
26/09:00am 27.7 30.2 24.5 83 2.2 E 19 24 10 13 1014.4 1014.4 0.0
26/08:30am 27.3 29.2 24.4 84 2.0 E 22 28 12 15 1013.9 - 0.0
26/08:00am 26.8 29.0 23.9 84 2.0 E 19 28 10 15 1013.8 - 0.0
26/07:30am 26.7 28.1 23.6 83 2.1 ENE 22 30 12 16 1013.4 - 0.0
26/07:00am 26.5 28.8 23.4 83 2.1 NE 17 24 9 13 1013.1 - 0.0
26/06:30am 26.4 28.5 23.1 82 2.2 NE 17 26 9 14 1012.6 - 0.0
26/06:00am 26.3 27.7 22.8 81 2.4 NE 20 28 11 15 1012.4 1012.4 0.0
26/05:30am 26.5 27.8 22.6 79 2.6 NE 20 28 11 15 1012.0 - 0.0
26/05:00am 25.4 27.2 20.4 74 3.3 NE 11 17 6 9 1011.6 - 0.0
26/04:30am 23.3 24.7 17.3 69 3.7 NE 6 7 3 4 1011.5 - 0.0
26/04:00am 23.5 24.9 17.3 68 3.8 N 6 7 3 4 1011.3 - 0.0
26/03:30am 23.3 24.7 17.3 69 3.7 NE 6 7 3 4 1011.5 - 0.0
26/03:00am 23.1 23.7 16.9 68 3.8 SW 9 15 5 8 1011.1 1011.1 0.0
26/02:30am 24.0 24.5 17.5 67 4.0 W 11 15 6 8 1011.0 - 0.0
26/02:00am 24.4 25.5 17.9 67 4.1 W 9 15 5 8 1011.0 - 0.0
26/01:30am 24.9 25.9 18.6 68 4.0 W 11 19 6 10 1011.1 - 0.0
26/01:00am 24.7 26.3 20.0 75 3.0 WNW 11 13 6 7 1011.3 - 0.0
26/12:30am 24.1 25.8 19.4 75 3.0 WNW 9 13 5 7 1011.5 - 0.0
26/12:00am 23.5 25.2 18.4 73 3.2 W 7 9 4 5 1011.4 1011.4 0.0
 
Date/Time
CST
Temp
°C
App
Temp
°C
Dew
Point
°C
Rel
Hum
%
Delta-T
°C
Wind Press
QNH
hPa
Press
MSL
hPa
Rain since
9am
mm
Dir  Spd
km/h
Gust
km/h
Spd
kts
Gust
kts
25/11:30pm 23.7 24.6 18.4 72 3.3 W 11 13 6 7 1011.3 - 0.0
25/11:00pm 24.4 25.2 19.0 72 3.4 W 13 15 7 8 1011.4 - 0.0
25/10:30pm 25.1 27.3 19.5 71 3.6 WSW 7 11 4 6 1011.3 - 0.0
25/10:00pm 25.9 27.5 20.0 70 3.8 WSW 11 13 6 7 1011.0 - 0.0
25/09:30pm 26.8 28.6 20.4 68 4.2 W 11 13 6 7 1010.7 - 0.0
25/09:00pm 26.8 28.1 20.2 67 4.3 WNW 13 19 7 10 1010.3 1010.3 0.0
25/08:30pm 26.4 27.3 19.3 65 4.6 NW 13 15 7 8 1010.2 - 0.0
25/08:00pm 26.9 28.3 19.5 64 4.8 NW 11 13 6 7 1009.8 - 0.0
25/07:30pm 27.3 28.1 19.1 61 5.3 NW 13 15 7 8 1009.4 - 0.0
25/07:00pm 28.1 29.3 19.1 58 5.8 NNW 11 15 6 8 1009.0 - 0.0
25/06:30pm 29.2 30.2 19.5 56 6.3 NW 13 17 7 9 1008.7 - 0.0
25/06:00pm 30.5 31.7 19.8 52 7.0 NNW 13 20 7 11 1008.4 1008.4 0.0
25/05:30pm 31.0 32.5 19.7 51 7.4 NNW 11 17 6 9 1008.0 - 0.0
25/05:00pm 30.9 31.8 19.3 50 7.6 NNW 13 17 7 9 1007.8 - 0.0
25/04:30pm 31.2 32.1 19.2 48 7.8 N 13 20 7 11 1007.7 - 0.0
25/04:00pm 31.5 32.0 19.2 48 8.0 NNW 15 20 8 11 1007.8 - 0.0
25/03:30pm 31.7 32.1 19.0 47 8.3 NNW 15 20 8 11 1008.0 - 0.0
25/03:00pm 32.4 32.9 19.3 46 8.6 NNW 15 22 8 12 1008.3 1008.3 0.0
25/02:30pm 32.5 32.7 19.4 46 8.6 NNW 17 24 9 13 1008.6 - 0.0
25/02:00pm 32.2 33.2 19.5 47 8.3 N 13 20 7 11 1008.9 - 0.0
25/01:30pm 31.9 32.9 19.5 47 8.1 N 13 24 7 13 1009.2 - 0.0
25/01:00pm 31.9 32.9 19.5 47 8.1 N 13 22 7 12 1009.7 - 0.0
25/12:30pm 31.9 33.6 20.2 50 7.8 N 11 19 6 10 1010.1 - 0.0
25/12:00pm 32.0 34.1 20.9 52 7.4 NE 11 20 6 11 1010.5 1010.5 0.0
25/11:30am 31.2 32.8 20.8 54 6.9 E 13 20 7 11 1010.9 - 0.0
25/11:00am 31.2 33.0 21.1 55 6.8 ENE 13 20 7 11 1011.4 - 0.0
25/10:30am 30.3 33.0 21.4 59 6.0 NE 9 15 5 8 1011.6 - 0.0
25/10:00am 28.7 31.0 20.7 62 5.3 SSE 9 11 5 6 1011.7 - 0.0
25/09:30am 28.0 31.1 21.5 67 4.3 SSE 7 11 4 6 1011.8 - 0.0
25/09:00am 26.3 29.5 21.7 76 3.1 SSW 7 11 4 6 1011.6 1011.6 0.0
25/08:30am 24.9 28.7 22.4 86 1.7 WSW 6 9 3 5 1011.4 - 0.0
25/08:00am 23.6 27.4 21.7 89 1.3 SW 4 7 2 4 1011.2 - 0.0
25/07:30am 22.2 25.2 20.1 88 1.4 SW 4 6 2 3 1010.8 - 0.0
25/07:00am 22.3 24.7 20.0 87 1.5 SW 7 9 4 5 1010.3 - 0.0
25/06:30am 22.6 26.1 20.3 87 1.5 W 2 7 1 4 1009.8 - 0.0
25/06:00am 22.6 26.4 20.1 86 1.6 CALM 0 0 0 0 1009.5 1009.5 0.0
25/05:30am 22.6 26.2 19.8 84 1.8 CALM 0 0 0 0 1009.4 - 0.0
25/05:00am 22.7 25.5 19.7 83 1.9 SE 4 9 2 5 1009.1 - 0.0
25/04:30am 23.1 25.7 20.1 83 1.9 SSE 6 7 3 4 1008.8 - 0.0
25/04:00am 23.1 25.6 19.9 82 2.1 W 6 7 3 4 1008.9 - 0.0
25/03:30am 23.4 25.1 20.1 82 2.1 WNW 11 11 6 6 1009.0 - 0.0
25/03:00am 22.9 25.1 19.5 81 2.2 WNW 7 9 4 5 1009.2 1009.2 0.0
25/02:30am 23.1 24.9 19.5 80 2.3 W 9 11 5 6 1009.4 - 0.0
25/02:00am 23.1 24.3 19.1 78 2.5 WSW 11 13 6 7 1009.6 - 0.0
25/01:30am 23.9 25.0 19.6 77 2.8 SW 13 15 7 8 1009.8 - 0.0
25/01:00am 25.2 26.8 20.7 76 2.9 WSW 13 15 7 8 1010.0 - 0.0
25/12:30am 26.2 27.8 21.4 75 3.2 W 15 20 8 11 1010.2 - 0.0
25/12:00am 26.5 27.8 21.7 75 3.2 WNW 17 20 9 11 1010.4 1010.4 0.0
 
Date/Time
CST
Temp
°C
App
Temp
°C
Dew
Point
°C
Rel
Hum
%
Delta-T
°C
Wind Press
QNH
hPa
Press
MSL
hPa
Rain since
9am
mm
Dir  Spd
km/h
Gust
km/h
Spd
kts
Gust
kts
24/11:30pm 26.6 27.5 21.6 74 3.3 W 19 24 10 13 1010.4 - 0.0
24/11:00pm 26.8 27.6 21.8 74 3.3 W 20 26 11 14 1010.4 - 0.0

Other Formats:

Comma delimited format used in spreadsheet applications
http://www.bom.gov.au/fwo/IDD60801/IDD60801.94127.axf

JavaScript Object Notation format (JSON) in row-major order
http://www.bom.gov.au/fwo/IDD60801/IDD60801.94127.json